createdAt,value
2018-12-29T00:01:36.416Z,58.70
2018-12-29T00:04:08.512Z,59.00
2018-12-29T00:06:42.608Z,59.30
2018-12-29T00:09:15.824Z,59.30
2018-12-29T00:11:49.674Z,59.80
2018-12-29T00:14:23.906Z,60.10
2018-12-29T00:16:56.748Z,60.30
2018-12-29T00:19:30.525Z,60.20
2018-12-29T00:22:02.856Z,60.80
2018-12-29T00:24:40.075Z,59.90
2018-12-29T00:27:12.479Z,59.70
2018-12-29T00:29:46.332Z,59.70
2018-12-29T00:32:18.616Z,59.40
2018-12-29T00:34:52.454Z,58.90
2018-12-29T00:37:28.475Z,58.80
2018-12-29T00:40:03.020Z,59.00
2018-12-29T00:42:36.634Z,58.70
2018-12-29T00:45:10.654Z,58.70
2018-12-29T00:47:44.791Z,58.50
2018-12-29T00:50:18.051Z,58.20
2018-12-29T00:52:50.188Z,58.40
2018-12-29T00:55:24.321Z,58.30
2018-12-29T00:57:56.260Z,57.80
2018-12-29T01:00:28.223Z,57.80
2018-12-29T01:03:00.229Z,57.80
2018-12-29T01:05:33.390Z,57.90
2018-12-29T01:08:08.034Z,58.00
2018-12-29T01:10:40.368Z,58.00
2018-12-29T01:13:13.165Z,57.80
2018-12-29T01:15:45.726Z,57.40
2018-12-29T01:18:17.885Z,57.40
2018-12-29T01:20:50.202Z,57.10
2018-12-29T01:23:22.125Z,57.20
2018-12-29T01:25:54.637Z,57.40
2018-12-29T01:28:30.212Z,57.60
2018-12-29T01:31:02.118Z,57.80
2018-12-29T01:33:33.944Z,58.00
2018-12-29T01:36:05.829Z,58.20
2018-12-29T01:38:38.101Z,58.40
2018-12-29T01:41:10.361Z,58.50
2018-12-29T01:43:42.651Z,58.70
2018-12-29T01:46:14.521Z,58.70
2018-12-29T01:48:46.389Z,58.80
2018-12-29T01:51:18.857Z,59.10
2018-12-29T01:53:51.903Z,59.20
2018-12-29T01:56:24.429Z,59.20
2018-12-29T01:58:56.739Z,59.20
2018-12-29T02:01:28.857Z,59.40
2018-12-29T02:04:01.277Z,59.90
2018-12-29T02:06:33.325Z,60.30
2018-12-29T02:09:06.149Z,60.40
2018-12-29T02:11:38.200Z,60.20
2018-12-29T02:14:11.077Z,60.00
2018-12-29T02:16:43.348Z,60.30
2018-12-29T02:19:16.346Z,60.30
2018-12-29T02:21:49.010Z,60.10
2018-12-29T02:24:20.944Z,60.40
2018-12-29T02:26:52.791Z,60.70
2018-12-29T02:29:24.667Z,60.70
2018-12-29T02:31:56.878Z,61.00
2018-12-29T02:34:28.891Z,61.00
2018-12-29T02:37:01.210Z,60.60
2018-12-29T02:39:33.808Z,60.10
2018-12-29T02:42:05.906Z,60.00
2018-12-29T02:44:37.930Z,59.90
2018-12-29T02:47:09.876Z,60.10
2018-12-29T02:49:41.819Z,60.30
2018-12-29T02:52:14.510Z,60.90
2018-12-29T02:54:47.173Z,60.80
2018-12-29T02:57:20.798Z,61.00
2018-12-29T02:59:53.302Z,60.80
2018-12-29T03:02:25.273Z,60.30
2018-12-29T03:04:57.554Z,60.80
2018-12-29T03:07:29.677Z,60.90
2018-12-29T03:10:03.060Z,61.20
2018-12-29T03:12:35.050Z,61.50
2018-12-29T03:15:07.223Z,61.90
2018-12-29T03:17:40.494Z,62.10
2018-12-29T03:20:12.698Z,62.20
2018-12-29T03:22:44.749Z,62.30
2018-12-29T03:25:16.599Z,62.70
2018-12-29T03:27:48.802Z,62.50
2018-12-29T03:30:22.014Z,62.70
2018-12-29T03:32:53.923Z,62.80
2018-12-29T03:35:25.984Z,62.90
2018-12-29T03:37:58.031Z,62.80
2018-12-29T03:40:29.916Z,62.20
2018-12-29T03:43:01.796Z,61.20
2018-12-29T03:45:33.645Z,61.20
2018-12-29T03:48:06.663Z,60.40
2018-12-29T03:50:39.329Z,60.70
2018-12-29T03:53:11.543Z,61.20
2018-12-29T03:55:44.376Z,61.80
2018-12-29T03:58:16.292Z,61.90
2018-12-29T04:00:48.150Z,61.80
2018-12-29T04:03:20.023Z,62.20
2018-12-29T04:05:51.903Z,62.40
2018-12-29T04:08:24.058Z,63.00
2018-12-29T04:10:56.406Z,63.30
2018-12-29T04:13:28.826Z,63.50
2018-12-29T04:16:01.404Z,63.20
2018-12-29T04:18:33.803Z,63.20
2018-12-29T04:21:05.671Z,62.50
2018-12-29T04:23:38.522Z,62.40
2018-12-29T04:26:10.403Z,62.10
2018-12-29T04:28:43.371Z,61.20
2018-12-29T04:31:15.281Z,60.80
2018-12-29T04:33:47.493Z,60.20
2018-12-29T04:36:19.522Z,59.40
2018-12-29T04:38:51.631Z,58.90
2018-12-29T04:41:24.289Z,58.60
2018-12-29T04:43:56.503Z,58.30
2018-12-29T04:46:29.200Z,57.90
2018-12-29T04:49:01.857Z,57.50
2018-12-29T04:51:34.794Z,57.20
2018-12-29T04:54:06.868Z,57.00
2018-12-29T04:56:39.216Z,57.10
2018-12-29T04:59:11.075Z,56.20
2018-12-29T05:01:43.013Z,55.80
2018-12-29T05:04:14.953Z,55.70
2018-12-29T05:06:48.301Z,55.40
2018-12-29T05:09:20.949Z,55.50
2018-12-29T05:11:52.829Z,55.40
2018-12-29T05:14:24.681Z,55.30
2018-12-29T05:16:56.543Z,55.10
2018-12-29T05:19:28.381Z,55.00
2018-12-29T05:22:00.377Z,55.00
2018-12-29T05:24:33.046Z,54.70
2018-12-29T05:27:04.998Z,55.00
2018-12-29T05:29:37.786Z,55.10
2018-12-29T05:32:09.665Z,54.80
2018-12-29T05:34:41.501Z,55.20
2018-12-29T05:37:13.378Z,55.50
2018-12-29T05:39:45.227Z,55.70
2018-12-29T05:42:17.838Z,55.80
2018-12-29T05:44:50.388Z,55.60
2018-12-29T05:47:22.900Z,55.70
2018-12-29T05:49:55.081Z,55.50
2018-12-29T05:52:26.967Z,55.70
2018-12-29T05:54:58.813Z,55.80
2018-12-29T05:57:30.705Z,55.40
2018-12-29T06:00:02.560Z,55.20
2018-12-29T06:02:34.448Z,55.10
2018-12-29T06:05:06.622Z,55.00
2018-12-29T06:07:39.147Z,55.00
2018-12-29T06:10:11.066Z,54.90
2018-12-29T06:12:42.946Z,54.50
2018-12-29T06:15:14.880Z,54.90
2018-12-29T06:17:47.376Z,55.20
2018-12-29T06:20:20.463Z,55.20
2018-12-29T06:22:52.845Z,55.40
2018-12-29T06:25:25.264Z,55.50
2018-12-29T06:27:57.165Z,55.40
2018-12-29T06:30:29.012Z,55.40
2018-12-29T06:33:00.881Z,55.30
2018-12-29T06:35:32.728Z,55.20
2018-12-29T06:38:04.964Z,55.00
2018-12-29T06:40:37.179Z,55.00
2018-12-29T06:43:09.425Z,55.00
2018-12-29T06:45:41.833Z,54.80
2018-12-29T06:48:13.710Z,54.90
2018-12-29T06:50:45.558Z,54.70
2018-12-29T06:53:17.437Z,54.60
2018-12-29T06:55:49.632Z,54.50
2018-12-29T06:58:21.797Z,54.20
2018-12-29T07:00:54.626Z,54.10
2018-12-29T07:03:26.548Z,54.00
2018-12-29T07:05:58.807Z,54.20
2018-12-29T07:08:31.483Z,54.10
2018-12-29T07:11:03.460Z,54.50
2018-12-29T07:13:35.477Z,54.60
2018-12-29T07:16:07.384Z,54.70
2018-12-29T07:18:40.448Z,54.70
2018-12-29T07:21:12.716Z,54.70
2018-12-29T07:23:45.868Z,54.60
2018-12-29T07:26:17.811Z,54.40
2018-12-29T07:28:49.697Z,54.70
2018-12-29T07:31:21.840Z,54.00
2018-12-29T07:33:54.418Z,54.00
2018-12-29T07:36:27.012Z,53.60
2018-12-29T07:38:59.791Z,54.20
2018-12-29T07:41:31.694Z,53.50
2018-12-29T07:44:03.580Z,54.00
2018-12-29T07:46:35.987Z,54.20
2018-12-29T07:49:08.178Z,54.50
2018-12-29T07:51:40.635Z,54.80
2018-12-29T07:54:12.863Z,54.40
2018-12-29T07:56:44.903Z,54.70
2018-12-29T07:59:16.775Z,54.70
2018-12-29T08:01:48.618Z,54.50
2018-12-29T08:04:20.491Z,54.70
2018-12-29T08:06:52.627Z,54.70
2018-12-29T08:09:25.751Z,54.80
2018-12-29T08:11:59.813Z,55.00
2018-12-29T08:14:32.678Z,55.30
2018-12-29T08:17:06.099Z,55.20
2018-12-29T08:19:38.951Z,55.40
2018-12-29T08:22:11.893Z,55.70
2018-12-29T08:24:44.948Z,55.80
2018-12-29T08:27:19.394Z,55.80
2018-12-29T08:29:54.290Z,55.60
2018-12-29T08:32:31.497Z,55.40
2018-12-29T08:35:04.928Z,55.50
2018-12-29T08:37:37.935Z,55.40
2018-12-29T08:40:12.229Z,55.50
2018-12-29T08:42:46.254Z,55.70
2018-12-29T08:45:19.897Z,55.30
2018-12-29T08:47:55.299Z,55.00
2018-12-29T08:50:28.960Z,54.90
2018-12-29T08:53:02.697Z,54.50
2018-12-29T08:55:35.130Z,54.30
2018-12-29T08:58:07.860Z,53.90
2018-12-29T09:00:41.856Z,54.00
2018-12-29T09:03:15.165Z,54.30
2018-12-29T09:05:47.081Z,54.40
2018-12-29T09:08:18.974Z,54.20
2018-12-29T09:10:51.494Z,54.50
2018-12-29T09:13:24.227Z,54.60
2018-12-29T09:15:56.374Z,54.70
2018-12-29T09:18:28.303Z,54.70
2018-12-29T09:21:00.194Z,54.70
2018-12-29T09:23:32.391Z,54.40
2018-12-29T09:26:04.763Z,54.50
2018-12-29T09:28:37.441Z,54.60
2018-12-29T09:31:09.331Z,54.50
2018-12-29T09:33:41.167Z,54.60
2018-12-29T09:36:13.054Z,54.80
2018-12-29T09:38:45.029Z,55.10
2018-12-29T09:41:17.256Z,55.10
2018-12-29T09:43:49.422Z,55.00
2018-12-29T09:46:22.283Z,55.10
2018-12-29T09:48:56.838Z,54.90
2018-12-29T09:51:30.081Z,54.70
2018-12-29T09:54:03.703Z,54.20
2018-12-29T09:56:37.380Z,54.20
2018-12-29T09:59:10.294Z,54.20
2018-12-29T10:01:42.231Z,54.00
2018-12-29T10:04:14.079Z,53.40
2018-12-29T10:06:46.311Z,52.90
2018-12-29T10:09:18.446Z,52.70
2018-12-29T10:11:50.690Z,52.80
2018-12-29T10:14:23.558Z,52.30
2018-12-29T10:16:55.458Z,52.40
2018-12-29T10:19:27.300Z,52.50
2018-12-29T10:21:59.173Z,53.00
2018-12-29T10:24:31.024Z,53.40
2018-12-29T10:27:03.021Z,53.90
2018-12-29T10:29:34.937Z,54.30
2018-12-29T10:32:07.424Z,54.70
2018-12-29T10:34:39.899Z,55.20
2018-12-29T10:37:11.985Z,55.50
2018-12-29T10:39:43.856Z,55.70
2018-12-29T10:42:15.782Z,55.80
2018-12-29T10:44:47.774Z,55.80
2018-12-29T10:47:19.762Z,55.90
2018-12-29T10:49:52.166Z,56.00
2018-12-29T10:52:24.541Z,55.90
2018-12-29T10:54:57.139Z,56.10
2018-12-29T10:57:32.098Z,56.00
2018-12-29T11:00:03.943Z,55.70
2018-12-29T11:02:39.017Z,55.80
2018-12-29T11:05:12.489Z,56.00
2018-12-29T11:07:44.629Z,55.60
2018-12-29T11:10:17.255Z,55.10
2018-12-29T11:12:49.675Z,55.10
2018-12-29T11:15:21.642Z,55.10
2018-12-29T11:17:53.855Z,55.20
2018-12-29T11:20:26.649Z,55.00
2018-12-29T11:22:58.697Z,54.70
2018-12-29T11:25:31.502Z,55.00
2018-12-29T11:28:04.448Z,54.90
2018-12-29T11:30:36.782Z,54.80
2018-12-29T11:33:09.340Z,54.80
2018-12-29T11:35:42.837Z,54.80
2018-12-29T11:38:14.915Z,54.90
2018-12-29T11:40:46.777Z,54.70
2018-12-29T11:43:19.744Z,54.50
2018-12-29T11:45:52.587Z,54.30
2018-12-29T11:48:25.618Z,53.50
2018-12-29T11:50:58.424Z,52.70
2018-12-29T11:53:30.754Z,52.90
2018-12-29T11:56:03.530Z,53.10
2018-12-29T11:58:36.281Z,53.10
2018-12-29T12:01:08.986Z,52.90
2018-12-29T12:03:41.248Z,52.80
2018-12-29T12:06:14.002Z,52.70
2018-12-29T12:08:46.275Z,52.80
2018-12-29T12:11:18.183Z,51.90
2018-12-29T12:13:50.370Z,52.20
2018-12-29T12:16:22.287Z,52.60
2018-12-29T12:18:54.480Z,52.20
2018-12-29T12:21:26.877Z,52.00
2018-12-29T12:23:59.500Z,51.60
2018-12-29T12:26:34.262Z,50.90
2018-12-29T12:29:08.395Z,50.10
2018-12-29T12:31:41.973Z,49.20
2018-12-29T12:34:15.906Z,48.50
2018-12-29T12:36:50.260Z,48.70
2018-12-29T12:39:24.040Z,48.90
2018-12-29T12:41:57.305Z,48.80
2018-12-29T12:44:32.178Z,49.70
2018-12-29T12:47:06.939Z,50.10
2018-12-29T12:49:41.564Z,50.30
2018-12-29T12:52:16.859Z,50.30
2018-12-29T12:54:50.620Z,50.90
2018-12-29T12:57:25.864Z,50.80
2018-12-29T13:00:00.290Z,51.30
2018-12-29T13:02:35.002Z,51.60
2018-12-29T13:05:08.746Z,51.80
2018-12-29T13:07:42.260Z,51.80
2018-12-29T13:10:16.796Z,52.20
2018-12-29T13:12:51.488Z,52.50
2018-12-29T13:15:26.053Z,53.10
2018-12-29T13:18:00.335Z,53.70
2018-12-29T13:20:34.827Z,53.70
2018-12-29T13:23:08.444Z,53.50
2018-12-29T13:25:48.165Z,53.70
2018-12-29T13:28:22.218Z,53.50
2018-12-29T13:30:56.916Z,53.00
2018-12-29T13:33:29.992Z,52.40
2018-12-29T13:36:03.441Z,52.40
2018-12-29T13:38:38.973Z,52.80
2018-12-29T13:41:12.254Z,53.30
2018-12-29T13:43:48.909Z,53.30
2018-12-29T13:46:23.236Z,53.90
2018-12-29T13:48:57.357Z,53.90
2018-12-29T13:51:31.375Z,54.00
2018-12-29T13:54:06.306Z,54.30
2018-12-29T13:56:41.486Z,54.10
2018-12-29T13:59:16.525Z,54.30
2018-12-29T14:01:52.394Z,54.40
2018-12-29T14:04:26.907Z,54.30
2018-12-29T14:07:01.937Z,54.40
2018-12-29T14:09:35.065Z,54.30
2018-12-29T14:12:08.453Z,54.00
2018-12-29T14:14:43.000Z,53.90
2018-12-29T14:17:17.451Z,53.80
2018-12-29T14:19:50.568Z,53.50
2018-12-29T14:22:24.979Z,53.30
2018-12-29T14:25:00.548Z,53.10
2018-12-29T14:27:34.113Z,52.70
2018-12-29T14:30:08.181Z,53.10
2018-12-29T14:32:42.505Z,53.30
2018-12-29T14:35:15.842Z,53.20
2018-12-29T14:37:49.415Z,52.80
2018-12-29T14:40:23.454Z,52.70
2018-12-29T14:42:57.227Z,52.60
2018-12-29T14:45:32.394Z,52.50
2018-12-29T14:48:07.224Z,52.30
2018-12-29T14:50:42.917Z,52.40
2018-12-29T14:53:17.334Z,52.40
2018-12-29T14:55:51.765Z,52.60
2018-12-29T14:58:25.715Z,52.60
2018-12-29T15:01:00.050Z,52.70
2018-12-29T15:03:35.465Z,52.50
2018-12-29T15:06:09.508Z,52.40
2018-12-29T15:08:43.337Z,52.20
2018-12-29T15:11:17.428Z,52.40
2018-12-29T15:13:52.796Z,52.50
2018-12-29T15:16:27.644Z,52.40
2018-12-29T15:19:02.642Z,52.30
2018-12-29T15:21:36.764Z,52.70
2018-12-29T15:24:11.212Z,53.00
2018-12-29T15:26:48.110Z,53.40
2018-12-29T15:29:22.038Z,53.60
2018-12-29T15:31:56.064Z,53.90
2018-12-29T15:34:29.829Z,54.00
2018-12-29T15:37:04.613Z,54.00
2018-12-29T15:39:39.056Z,54.30
2018-12-29T15:42:13.131Z,54.20
2018-12-29T15:44:46.937Z,54.40
2018-12-29T15:47:22.339Z,54.50
2018-12-29T15:49:58.882Z,54.40
2018-12-29T15:52:32.286Z,54.40
2018-12-29T15:55:06.656Z,54.40
2018-12-29T15:57:40.585Z,54.40
2018-12-29T16:00:14.279Z,54.30
2018-12-29T16:02:50.160Z,54.30
2018-12-29T16:05:24.574Z,54.40
2018-12-29T16:07:58.815Z,54.70
2018-12-29T16:10:32.759Z,55.30
2018-12-29T16:13:07.226Z,55.60
2018-12-29T16:15:42.020Z,55.50
2018-12-29T16:18:14.896Z,55.60
2018-12-29T16:20:53.503Z,55.80
2018-12-29T16:23:23.653Z,55.60
2018-12-29T16:26:00.119Z,56.20
2018-12-29T16:28:35.968Z,57.00
2018-12-29T16:31:11.113Z,57.50
2018-12-29T16:33:43.332Z,57.80
2018-12-29T16:36:16.710Z,58.00
2018-12-29T16:38:50.339Z,58.20
2018-12-29T16:41:32.283Z,58.50
2018-12-29T16:44:06.393Z,58.50
2018-12-29T16:46:40.071Z,58.40
2018-12-29T16:49:14.946Z,58.20
2018-12-29T16:51:48.922Z,57.80
2018-12-29T16:54:25.051Z,57.60
2018-12-29T16:57:01.772Z,57.60
2018-12-29T16:59:36.577Z,57.70
2018-12-29T17:02:12.505Z,57.60
2018-12-29T17:04:46.698Z,57.50
2018-12-29T17:07:19.591Z,57.10
2018-12-29T17:09:55.531Z,57.00
2018-12-29T17:12:29.981Z,57.10
2018-12-29T17:15:05.167Z,57.50
2018-12-29T17:17:39.787Z,57.60
2018-12-29T17:20:15.122Z,57.50
2018-12-29T17:22:50.765Z,57.50
2018-12-29T17:25:24.363Z,57.50
2018-12-29T17:27:57.672Z,57.20
2018-12-29T17:30:31.270Z,57.00
2018-12-29T17:33:05.395Z,56.90
2018-12-29T17:35:39.087Z,57.00
2018-12-29T17:38:15.322Z,56.70
2018-12-29T17:40:49.726Z,56.40
2018-12-29T17:43:25.966Z,56.40
2018-12-29T17:46:03.295Z,56.60
2018-12-29T17:48:37.740Z,56.70
2018-12-29T17:51:11.892Z,56.80
2018-12-29T17:53:56.148Z,56.80
2018-12-29T17:56:30.248Z,56.60
2018-12-29T17:59:03.651Z,56.70
2018-12-29T18:01:39.266Z,56.50
2018-12-29T18:04:13.647Z,56.40
2018-12-29T18:06:49.646Z,56.40
2018-12-29T18:09:37.082Z,56.10
2018-12-29T18:12:23.713Z,56.20
2018-12-29T18:14:59.098Z,56.40
2018-12-29T18:17:35.781Z,56.70
2018-12-29T18:20:09.737Z,56.90
2018-12-29T18:22:43.878Z,56.60
2018-12-29T18:25:17.588Z,56.30
2018-12-29T18:27:50.784Z,55.70
2018-12-29T18:30:22.789Z,55.50
2018-12-29T18:32:54.840Z,55.20
2018-12-29T18:35:28.328Z,55.00
2018-12-29T18:38:02.102Z,55.10
2018-12-29T18:40:36.985Z,55.20
2018-12-29T18:43:10.759Z,55.40
2018-12-29T18:45:45.751Z,55.30
2018-12-29T18:48:20.918Z,54.80
2018-12-29T18:50:55.758Z,54.90
2018-12-29T18:53:31.488Z,54.80
2018-12-29T18:56:06.473Z,55.00
2018-12-29T18:58:40.578Z,55.20
2018-12-29T19:01:15.517Z,55.10
2018-12-29T19:03:49.793Z,55.20
2018-12-29T19:06:23.791Z,55.40
2018-12-29T19:08:57.635Z,55.80
2018-12-29T19:11:31.453Z,55.60
2018-12-29T19:14:05.646Z,55.60
2018-12-29T19:16:39.575Z,55.50
2018-12-29T19:19:13.363Z,55.50
2018-12-29T19:21:48.120Z,55.90
2018-12-29T19:24:22.423Z,56.70
2018-12-29T19:26:56.062Z,56.80
2018-12-29T19:29:29.814Z,56.80
2018-12-29T19:32:04.178Z,56.60
2018-12-29T19:34:42.138Z,56.40
2018-12-29T19:37:23.882Z,56.00
2018-12-29T19:40:00.814Z,55.80
2018-12-29T19:42:36.512Z,56.10
2018-12-29T19:45:11.824Z,56.20
2018-12-29T19:47:45.475Z,56.70
2018-12-29T19:50:20.084Z,57.40
2018-12-29T19:52:54.000Z,57.70
2018-12-29T19:55:28.088Z,57.90
2018-12-29T19:58:03.058Z,58.00
2018-12-29T20:00:37.669Z,58.10
2018-12-29T20:03:12.305Z,58.10
2018-12-29T20:05:46.413Z,58.50
2018-12-29T20:08:19.974Z,59.30
2018-12-29T20:10:53.652Z,60.00
2018-12-29T20:13:25.850Z,60.20
2018-12-29T20:15:59.021Z,60.30
2018-12-29T20:18:32.699Z,59.70
2018-12-29T20:21:07.458Z,59.60
2018-12-29T20:23:42.239Z,59.60
2018-12-29T20:26:17.235Z,59.70
2018-12-29T20:28:51.731Z,59.80
2018-12-29T20:31:25.648Z,60.00
2018-12-29T20:33:59.086Z,60.50
2018-12-29T20:36:32.953Z,61.40
2018-12-29T20:39:09.685Z,62.30
2018-12-29T20:41:43.775Z,62.70
2018-12-29T20:44:17.464Z,62.80
2018-12-29T20:46:53.760Z,62.80
2018-12-29T20:49:29.547Z,63.20
2018-12-29T20:52:03.665Z,63.90
2018-12-29T20:54:39.103Z,64.60
2018-12-29T20:57:13.067Z,65.60
2018-12-29T20:59:47.389Z,64.90
2018-12-29T21:02:21.696Z,65.10
2018-12-29T21:04:55.950Z,65.10
2018-12-29T21:07:31.355Z,64.60
2018-12-29T21:10:06.179Z,63.60
2018-12-29T21:12:42.032Z,62.60
2018-12-29T21:15:15.906Z,62.00
2018-12-29T21:18:01.462Z,61.00
2018-12-29T21:20:42.265Z,60.90
2018-12-29T21:23:25.421Z,60.70
2018-12-29T21:25:58.858Z,60.50
2018-12-29T21:28:35.448Z,60.50
2018-12-29T21:31:12.056Z,60.00
2018-12-29T21:33:46.237Z,59.60
2018-12-29T21:36:22.040Z,59.60
2018-12-29T21:39:05.697Z,59.40
2018-12-29T21:41:39.699Z,60.10
2018-12-29T21:44:12.901Z,59.10
2018-12-29T21:46:46.704Z,58.80
2018-12-29T21:49:19.886Z,58.80
2018-12-29T21:51:54.926Z,59.00
2018-12-29T21:54:29.596Z,59.10
2018-12-29T21:57:08.738Z,59.10
2018-12-29T21:59:45.647Z,59.00
2018-12-29T22:02:20.362Z,58.80
2018-12-29T22:04:54.275Z,59.60
2018-12-29T22:07:28.949Z,59.00
2018-12-29T22:10:03.073Z,59.20
2018-12-29T22:12:36.311Z,59.60
2018-12-29T22:15:10.034Z,59.70
2018-12-29T22:17:47.690Z,59.70
2018-12-29T22:20:22.773Z,60.30
2018-12-29T22:23:05.843Z,60.50
2018-12-29T22:25:48.123Z,60.60
2018-12-29T22:28:19.090Z,60.80
2018-12-29T22:30:53.387Z,61.20
2018-12-29T22:33:28.669Z,61.80
2018-12-29T22:36:02.925Z,62.10
2018-12-29T22:38:36.431Z,62.60
2018-12-29T22:41:10.230Z,63.80
2018-12-29T22:43:46.144Z,64.20
2018-12-29T22:46:21.359Z,64.60
2018-12-29T22:48:55.589Z,64.90
2018-12-29T22:51:29.591Z,65.60
2018-12-29T22:54:02.074Z,65.90
2018-12-29T22:56:36.108Z,66.10
2018-12-29T22:59:12.148Z,66.50
2018-12-29T23:01:46.036Z,67.50
2018-12-29T23:04:20.019Z,67.80
2018-12-29T23:06:55.094Z,67.20
2018-12-29T23:09:29.184Z,67.80
2018-12-29T23:12:06.632Z,68.10
2018-12-29T23:14:40.674Z,67.80
2018-12-29T23:17:19.255Z,68.00
2018-12-29T23:19:54.115Z,67.90
2018-12-29T23:22:28.927Z,67.60
2018-12-29T23:25:03.859Z,67.40
2018-12-29T23:27:38.747Z,67.00
2018-12-29T23:30:13.363Z,67.00
2018-12-29T23:32:51.164Z,67.20
2018-12-29T23:35:26.147Z,67.40
2018-12-29T23:38:02.150Z,67.20
2018-12-29T23:40:38.244Z,66.40
2018-12-29T23:43:21.969Z,65.80
2018-12-29T23:45:57.639Z,65.60
2018-12-29T23:48:42.141Z,66.30
2018-12-29T23:51:17.855Z,66.70
2018-12-29T23:53:51.485Z,67.60
2018-12-29T23:56:39.141Z,67.90
2018-12-29T23:59:12.481Z,67.70
